createdAt,value
2023-05-22T00:00:57.165Z,28.95
2023-05-22T00:01:57.154Z,28.99
2023-05-22T00:02:57.362Z,29.01
2023-05-22T00:03:57.146Z,29.02
2023-05-22T00:04:57.257Z,28.99
2023-05-22T00:05:57.122Z,29.01
2023-05-22T00:06:57.114Z,29.03
2023-05-22T00:07:57.088Z,28.95
2023-05-22T00:08:57.079Z,28.90
2023-05-22T00:09:57.082Z,28.97
2023-05-22T00:10:57.061Z,28.96
2023-05-22T00:11:57.099Z,28.98
2023-05-22T00:12:57.082Z,29.02
2023-05-22T00:13:57.061Z,29.03
2023-05-22T00:14:57.076Z,29.05
2023-05-22T00:15:57.077Z,29.02
2023-05-22T00:16:57.128Z,29.09
2023-05-22T00:17:57.087Z,29.18
2023-05-22T00:18:57.053Z,29.22
2023-05-22T00:19:57.026Z,29.31
2023-05-22T00:20:57.033Z,29.29
2023-05-22T00:21:57.011Z,29.26
2023-05-22T00:22:56.995Z,29.22
2023-05-22T00:23:56.986Z,29.21
2023-05-22T00:24:56.976Z,29.19
2023-05-22T00:25:57.017Z,29.27
2023-05-22T00:26:56.940Z,29.30
2023-05-22T00:27:56.976Z,29.27
2023-05-22T00:28:56.968Z,29.24
2023-05-22T00:29:56.935Z,29.24
2023-05-22T00:30:56.955Z,29.30
2023-05-22T00:31:57.029Z,29.23
2023-05-22T00:32:56.982Z,29.24
2023-05-22T00:33:56.916Z,29.27
2023-05-22T00:34:56.898Z,29.27
2023-05-22T00:35:56.917Z,29.28
2023-05-22T00:36:56.904Z,29.31
2023-05-22T00:37:56.889Z,29.40
2023-05-22T00:38:56.902Z,29.39
2023-05-22T00:39:56.902Z,29.39
2023-05-22T00:40:56.858Z,29.31
2023-05-22T00:41:56.873Z,29.35
2023-05-22T00:42:56.911Z,29.37
2023-05-22T00:43:56.862Z,29.44
2023-05-22T00:44:56.867Z,29.49
2023-05-22T00:45:56.830Z,29.53
2023-05-22T00:46:57.000Z,29.51
2023-05-22T00:47:56.938Z,29.45
2023-05-22T00:48:56.857Z,29.45
2023-05-22T00:49:56.837Z,29.43
2023-05-22T00:50:56.823Z,29.48
2023-05-22T00:51:56.825Z,29.50
2023-05-22T00:52:56.803Z,29.48
2023-05-22T00:53:56.794Z,29.49
2023-05-22T00:54:56.804Z,29.47
2023-05-22T00:55:56.803Z,29.48
2023-05-22T00:56:56.791Z,29.45
2023-05-22T00:57:56.785Z,29.49
2023-05-22T00:58:56.805Z,29.50
2023-05-22T00:59:56.807Z,29.51
2023-05-22T01:00:56.816Z,29.52
2023-05-22T01:01:56.840Z,29.52
2023-05-22T01:02:57.140Z,29.50
2023-05-22T01:03:56.940Z,29.52
2023-05-22T01:04:56.932Z,29.45
2023-05-22T01:05:56.975Z,29.49
2023-05-22T01:06:56.972Z,29.53
2023-05-22T01:07:56.988Z,29.50
2023-05-22T01:08:57.033Z,29.42
2023-05-22T01:09:57.074Z,29.42
2023-05-22T01:10:57.109Z,29.43
2023-05-22T01:11:57.098Z,29.42
2023-05-22T01:12:57.136Z,29.44
2023-05-22T01:13:57.129Z,29.50
2023-05-22T01:14:57.158Z,29.51
2023-05-22T01:15:57.208Z,29.60
2023-05-22T01:16:57.217Z,29.65
2023-05-22T01:17:57.290Z,29.66
2023-05-22T01:18:57.284Z,29.65
2023-05-22T01:19:57.303Z,29.67
2023-05-22T01:20:57.353Z,29.67
2023-05-22T01:21:57.373Z,29.68
2023-05-22T01:22:57.379Z,29.67
2023-05-22T01:23:57.401Z,29.67
2023-05-22T01:24:57.433Z,29.71
2023-05-22T01:25:57.447Z,29.71
2023-05-22T01:26:57.484Z,29.68
2023-05-22T01:27:57.530Z,29.71
2023-05-22T01:28:57.564Z,29.77
2023-05-22T01:29:57.593Z,29.80
2023-05-22T01:30:57.628Z,29.82
2023-05-22T01:31:57.685Z,29.84
2023-05-22T01:32:57.785Z,29.86
2023-05-22T01:33:57.983Z,29.89
2023-05-22T01:34:57.810Z,29.89
2023-05-22T01:35:57.805Z,29.92
2023-05-22T01:36:57.866Z,29.91
2023-05-22T01:37:57.914Z,29.93
2023-05-22T01:38:57.929Z,29.94
2023-05-22T01:39:57.972Z,29.89
2023-05-22T01:40:58.030Z,29.89
2023-05-22T01:41:58.103Z,29.84
2023-05-22T01:42:58.100Z,29.84
2023-05-22T01:43:58.115Z,29.80
2023-05-22T01:44:58.119Z,29.79
2023-05-22T01:45:58.245Z,29.76
2023-05-22T01:46:58.173Z,29.73
2023-05-22T01:47:58.260Z,29.73
2023-05-22T01:48:58.237Z,29.74
2023-05-22T01:49:58.250Z,29.77
2023-05-22T01:50:58.299Z,29.78
2023-05-22T01:51:58.302Z,29.81
2023-05-22T01:52:58.351Z,29.83
2023-05-22T01:53:58.421Z,29.83
2023-05-22T01:54:58.433Z,29.85
2023-05-22T01:55:58.441Z,29.92
2023-05-22T01:56:58.483Z,29.95
2023-05-22T01:57:58.525Z,29.98
2023-05-22T01:58:58.549Z,30.02
2023-05-22T01:59:58.609Z,30.03
2023-05-22T02:00:58.641Z,30.05
2023-05-22T02:01:58.706Z,30.05
2023-05-22T02:02:58.840Z,30.06
2023-05-22T02:03:58.714Z,30.05
2023-05-22T02:04:58.799Z,30.02
2023-05-22T02:05:58.786Z,30.00
2023-05-22T02:06:58.859Z,30.04
2023-05-22T02:07:58.843Z,30.06
2023-05-22T02:08:58.901Z,30.04
2023-05-22T02:09:58.898Z,30.06
2023-05-22T02:10:58.971Z,30.14
2023-05-22T02:11:59.021Z,30.20
2023-05-22T02:12:59.081Z,30.21
2023-05-22T02:13:59.089Z,30.21
2023-05-22T02:14:59.140Z,30.14
2023-05-22T02:15:59.226Z,30.16
2023-05-22T02:16:59.221Z,30.12
2023-05-22T02:17:59.356Z,30.12
2023-05-22T02:18:59.373Z,30.21
2023-05-22T02:19:59.350Z,30.20
2023-05-22T02:20:59.435Z,30.20
2023-05-22T02:21:59.450Z,30.20
2023-05-22T02:22:59.513Z,30.13
2023-05-22T02:23:59.526Z,30.13
2023-05-22T02:24:59.581Z,30.08
2023-05-22T02:25:59.625Z,30.09
2023-05-22T02:26:59.644Z,30.08
2023-05-22T02:27:59.720Z,30.11
2023-05-22T02:28:59.733Z,30.11
2023-05-22T02:29:59.773Z,30.17
2023-05-22T02:30:59.911Z,30.18
2023-05-22T02:31:59.895Z,30.23
2023-05-22T02:32:59.959Z,30.21
2023-05-22T02:33:59.989Z,30.24
2023-05-22T02:35:00.032Z,30.29
2023-05-22T02:36:00.135Z,30.27
2023-05-22T02:37:00.141Z,30.24
2023-05-22T02:38:00.206Z,30.26
2023-05-22T02:39:00.276Z,30.29
2023-05-22T02:40:00.311Z,30.32
2023-05-22T02:41:00.359Z,30.31
2023-05-22T02:42:00.423Z,30.35
2023-05-22T02:43:00.534Z,30.35
2023-05-22T02:44:00.565Z,30.37
2023-05-22T02:45:00.620Z,30.40
2023-05-22T02:46:00.701Z,30.34
2023-05-22T02:47:00.833Z,30.36
2023-05-22T02:48:00.924Z,30.37
2023-05-22T02:49:00.875Z,30.36
2023-05-22T02:50:00.929Z,30.30
2023-05-22T02:51:01.000Z,30.30
2023-05-22T02:52:01.096Z,30.29
2023-05-22T02:53:01.128Z,30.29
2023-05-22T02:54:01.184Z,30.30
2023-05-22T02:55:01.291Z,30.34
2023-05-22T02:56:01.330Z,30.30
2023-05-22T02:57:01.412Z,30.28
2023-05-22T02:59:05.290Z,30.26
2023-05-22T03:00:05.274Z,30.18
2023-05-22T03:01:05.272Z,30.20
2023-05-22T03:02:05.299Z,30.21
2023-05-22T03:03:05.340Z,30.23
2023-05-22T03:04:05.385Z,30.23
2023-05-22T03:05:05.241Z,30.23
2023-05-22T03:06:05.247Z,30.28
2023-05-22T03:07:05.236Z,30.32
2023-05-22T03:08:05.223Z,30.32
2023-05-22T03:09:05.241Z,30.30
2023-05-22T03:10:05.224Z,30.25
2023-05-22T03:11:05.312Z,30.25
2023-05-22T03:12:05.227Z,30.23
2023-05-22T03:13:05.236Z,30.20
2023-05-22T03:14:05.208Z,30.25
2023-05-22T03:15:05.204Z,30.27
2023-05-22T03:16:05.218Z,30.30
2023-05-22T03:17:05.168Z,30.35
2023-05-22T03:18:05.289Z,30.38
2023-05-22T03:19:05.198Z,30.40
2023-05-22T03:20:05.173Z,30.43
2023-05-22T03:21:05.141Z,30.43
2023-05-22T03:22:05.164Z,30.45
2023-05-22T03:23:05.167Z,30.45
2023-05-22T03:24:05.157Z,30.53
2023-05-22T03:25:05.167Z,30.60
2023-05-22T03:26:05.146Z,30.66
2023-05-22T03:27:05.090Z,30.71
2023-05-22T03:28:07.021Z,30.72
2023-05-22T03:29:05.156Z,30.68
2023-05-22T03:30:05.134Z,30.62
2023-05-22T03:31:05.190Z,30.57
2023-05-22T03:32:05.261Z,30.52
2023-05-22T03:33:05.348Z,30.54
2023-05-22T03:34:05.487Z,30.53
2023-05-22T03:35:05.442Z,30.49
2023-05-22T03:36:05.452Z,30.50
2023-05-22T03:37:05.551Z,30.54
2023-05-22T03:38:05.621Z,30.56
2023-05-22T03:39:05.681Z,30.61
2023-05-22T03:40:05.719Z,30.62
2023-05-22T03:41:05.791Z,30.60
2023-05-22T03:42:05.864Z,30.57
2023-05-22T03:43:05.925Z,30.59
2023-05-22T03:44:05.988Z,30.67
2023-05-22T03:45:06.075Z,30.70
2023-05-22T03:46:06.152Z,30.72
2023-05-22T03:47:06.140Z,30.70
2023-05-22T03:48:06.236Z,30.70
2023-05-22T03:49:06.240Z,30.70
2023-05-22T03:50:06.985Z,30.64
2023-05-22T03:51:06.379Z,30.63
2023-05-22T03:52:06.391Z,30.61
2023-05-22T03:53:06.459Z,30.52
2023-05-22T03:54:06.556Z,30.48
2023-05-22T03:55:06.624Z,30.51
2023-05-22T03:56:06.671Z,30.51
2023-05-22T03:57:06.706Z,30.56
2023-05-22T03:58:06.805Z,30.52
2023-05-22T03:59:06.848Z,30.52
2023-05-22T04:00:06.917Z,30.54
2023-05-22T04:01:06.966Z,30.52
2023-05-22T04:02:07.137Z,30.61
2023-05-22T04:03:07.128Z,30.59
2023-05-22T04:04:07.125Z,30.54
2023-05-22T04:05:07.282Z,30.53
2023-05-22T04:06:07.254Z,30.51
2023-05-22T04:07:07.310Z,30.53
2023-05-22T04:08:07.359Z,30.55
2023-05-22T04:09:07.364Z,30.60
2023-05-22T04:10:07.430Z,30.60
2023-05-22T04:11:07.437Z,30.63
2023-05-22T04:12:07.467Z,30.62
2023-05-22T04:13:07.505Z,30.60
2023-05-22T04:15:07.698Z,30.59
2023-05-22T04:16:07.744Z,30.58
2023-05-22T04:17:07.740Z,30.59
2023-05-22T04:18:07.953Z,30.58
2023-05-22T04:19:07.824Z,30.60
2023-05-22T04:20:07.794Z,30.56
2023-05-22T04:21:07.819Z,30.54
2023-05-22T04:22:07.856Z,30.55
2023-05-22T04:23:07.921Z,30.60
2023-05-22T04:24:07.908Z,30.58
2023-05-22T04:25:07.929Z,30.52
2023-05-22T04:26:07.938Z,30.52
2023-05-22T04:27:07.998Z,30.54
2023-05-22T04:28:08.037Z,30.56
2023-05-22T04:29:08.074Z,30.57
2023-05-22T04:30:08.113Z,30.58
2023-05-22T04:31:08.168Z,30.52
2023-05-22T04:32:08.175Z,30.51
2023-05-22T04:33:08.313Z,30.49
2023-05-22T04:34:08.258Z,30.50
2023-05-22T04:35:08.327Z,30.49
2023-05-22T04:36:09.466Z,30.51
2023-05-22T04:37:08.564Z,30.47
2023-05-22T04:38:08.645Z,30.46
2023-05-22T04:39:08.628Z,30.46
2023-05-22T04:40:08.665Z,30.44
2023-05-22T04:41:08.667Z,30.51
2023-05-22T04:42:08.723Z,30.51
2023-05-22T04:43:08.724Z,30.52
2023-05-22T04:44:08.716Z,30.48
2023-05-22T04:45:08.743Z,30.50
2023-05-22T04:46:08.809Z,30.58
2023-05-22T04:47:08.816Z,30.59
2023-05-22T04:48:08.849Z,30.60
2023-05-22T04:49:08.848Z,30.67
2023-05-22T04:50:08.810Z,30.73
2023-05-22T04:51:08.832Z,30.86
2023-05-22T04:52:08.827Z,30.75
2023-05-22T04:53:08.822Z,30.88
2023-05-22T04:54:08.830Z,30.95
2023-05-22T04:55:08.789Z,31.30
2023-05-22T04:56:08.854Z,31.71
2023-05-22T04:57:08.831Z,31.99
2023-05-22T04:58:08.857Z,32.14
2023-05-22T04:59:09.267Z,32.28
2023-05-22T05:00:08.864Z,32.44
2023-05-22T05:01:08.977Z,32.59
2023-05-22T05:02:08.859Z,32.79
2023-05-22T05:03:08.977Z,32.98
2023-05-22T05:04:08.971Z,33.07
2023-05-22T05:05:08.906Z,33.24
2023-05-22T05:06:08.950Z,33.41
2023-05-22T05:07:08.953Z,33.50
2023-05-22T05:08:08.924Z,33.65
2023-05-22T05:09:08.995Z,33.88
2023-05-22T05:10:08.995Z,34.06
2023-05-22T05:11:09.048Z,34.13
2023-05-22T05:12:09.077Z,34.31
2023-05-22T05:13:09.109Z,34.40
2023-05-22T05:14:09.160Z,34.49
2023-05-22T05:15:09.236Z,34.72
2023-05-22T05:16:09.319Z,34.89
2023-05-22T05:17:09.319Z,34.96
2023-05-22T05:18:09.468Z,35.23
2023-05-22T05:19:09.579Z,35.69
2023-05-22T05:20:09.395Z,35.95
2023-05-22T05:21:09.402Z,35.89
2023-05-22T05:22:09.385Z,35.98
2023-05-22T05:23:09.421Z,36.23
2023-05-22T05:24:09.439Z,36.31
2023-05-22T05:25:10.928Z,36.35
2023-05-22T05:26:09.511Z,36.19
2023-05-22T05:27:09.473Z,36.07
2023-05-22T05:28:09.520Z,36.24
2023-05-22T05:29:09.489Z,36.31
2023-05-22T05:30:09.573Z,36.49
2023-05-22T05:31:09.573Z,36.43
2023-05-22T05:32:09.630Z,36.27
2023-05-22T05:33:09.679Z,36.11
2023-05-22T05:34:09.627Z,36.03
2023-05-22T05:35:09.667Z,36.11
2023-05-22T05:36:09.662Z,36.05
2023-05-22T05:37:09.684Z,35.89
2023-05-22T05:38:09.705Z,35.71
2023-05-22T05:39:09.821Z,35.42
2023-05-22T05:40:09.776Z,35.25
2023-05-22T05:41:09.851Z,35.15
2023-05-22T05:42:09.878Z,35.13
2023-05-22T05:43:09.926Z,35.21
2023-05-22T05:44:09.928Z,35.24
2023-05-22T05:45:09.933Z,35.33
2023-05-22T05:46:10.069Z,35.44
2023-05-22T05:47:09.981Z,35.48
2023-05-22T05:48:10.085Z,35.49
2023-05-22T05:49:10.131Z,35.62
2023-05-22T05:50:10.045Z,35.59
2023-05-22T05:51:10.060Z,35.75
2023-05-22T05:52:10.019Z,35.93
2023-05-22T05:53:10.027Z,36.27
2023-05-22T05:54:10.274Z,36.53
2023-05-22T05:55:10.030Z,36.71
2023-05-22T05:56:10.038Z,37.16
2023-05-22T05:57:10.044Z,37.47
2023-05-22T05:58:10.037Z,37.33
2023-05-22T05:59:10.112Z,37.43
2023-05-22T06:00:10.064Z,37.36
2023-05-22T06:01:10.055Z,37.39
2023-05-22T06:02:10.166Z,37.24
2023-05-22T06:03:10.211Z,37.39
2023-05-22T06:04:10.121Z,37.37
2023-05-22T06:05:10.165Z,37.52
2023-05-22T06:06:10.160Z,37.46
2023-05-22T06:07:10.213Z,37.47
2023-05-22T06:08:10.247Z,37.45
2023-05-22T06:09:10.395Z,37.78
2023-05-22T06:10:10.387Z,37.87
2023-05-22T06:11:10.464Z,37.67
2023-05-22T06:12:10.513Z,37.54
2023-05-22T06:13:10.555Z,37.44
2023-05-22T06:14:10.610Z,37.35
2023-05-22T06:15:10.647Z,37.39
2023-05-22T06:16:10.691Z,37.41
2023-05-22T06:17:10.667Z,37.55
2023-05-22T06:18:10.734Z,37.58
2023-05-22T06:19:10.743Z,37.65
2023-05-22T06:20:10.875Z,37.63
2023-05-22T06:21:10.802Z,37.76
2023-05-22T06:22:10.789Z,37.78
2023-05-22T06:23:10.803Z,37.82
2023-05-22T06:24:10.865Z,37.81
2023-05-22T06:25:10.912Z,37.86
2023-05-22T06:26:10.957Z,37.95
2023-05-22T06:27:11.043Z,37.98
2023-05-22T06:28:11.101Z,38.12
2023-05-22T06:29:11.155Z,38.28
2023-05-22T06:30:11.224Z,38.35
2023-05-22T06:31:11.270Z,38.32
2023-05-22T06:32:11.372Z,38.44
2023-05-22T06:33:11.436Z,38.47
2023-05-22T06:34:11.534Z,38.45
2023-05-22T06:35:11.522Z,38.48
2023-05-22T06:36:12.593Z,38.46
2023-05-22T06:37:11.689Z,38.44
2023-05-22T06:38:11.759Z,38.48
2023-05-22T06:39:11.793Z,38.79
2023-05-22T06:40:11.810Z,39.08
2023-05-22T06:41:11.885Z,39.24
2023-05-22T06:42:11.920Z,38.99
2023-05-22T06:43:11.996Z,38.99
2023-05-22T06:44:12.050Z,39.11
2023-05-22T06:45:12.080Z,38.99
2023-05-22T06:46:12.149Z,38.90
2023-05-22T06:47:12.114Z,39.09
2023-05-22T06:48:12.113Z,38.93
2023-05-22T06:49:12.155Z,38.73
2023-05-22T06:50:12.118Z,38.75
2023-05-22T06:51:12.153Z,38.53
2023-05-22T06:52:12.184Z,38.60
2023-05-22T06:53:12.180Z,38.42
2023-05-22T06:54:12.269Z,38.37
2023-05-22T06:55:12.306Z,38.28
2023-05-22T06:56:12.354Z,38.32
2023-05-22T06:57:12.423Z,38.32
2023-05-22T06:58:12.477Z,38.50
2023-05-22T06:59:12.513Z,38.39
2023-05-22T07:00:12.575Z,38.49
2023-05-22T07:01:12.610Z,38.37
2023-05-22T07:02:12.570Z,38.50
2023-05-22T07:03:12.692Z,38.53
2023-05-22T07:04:12.652Z,38.47
2023-05-22T07:05:12.649Z,38.52
2023-05-22T07:06:12.754Z,38.53
2023-05-22T07:07:12.700Z,38.42
2023-05-22T07:08:12.694Z,38.42
2023-05-22T07:09:12.737Z,38.64
2023-05-22T07:10:12.756Z,38.88
2023-05-22T07:11:12.774Z,38.70
2023-05-22T07:12:12.781Z,38.81
2023-05-22T07:13:12.808Z,39.13
2023-05-22T07:14:12.834Z,39.28
2023-05-22T07:15:12.850Z,39.42
2023-05-22T07:16:12.908Z,39.65
2023-05-22T07:17:12.919Z,39.67
2023-05-22T07:18:12.976Z,39.59
2023-05-22T07:19:13.040Z,39.50
2023-05-22T07:20:13.017Z,39.34
2023-05-22T07:21:12.999Z,39.37
2023-05-22T07:22:13.069Z,39.50
2023-05-22T07:23:13.092Z,39.66
2023-05-22T07:24:13.092Z,39.72
2023-05-22T07:25:13.126Z,39.74
2023-05-22T07:26:13.159Z,39.56
2023-05-22T07:27:13.385Z,39.74
2023-05-22T07:28:13.219Z,39.80
2023-05-22T07:29:13.206Z,39.84
2023-05-22T07:30:13.256Z,39.79
2023-05-22T07:31:13.246Z,39.81
2023-05-22T07:32:13.253Z,39.93
2023-05-22T07:33:13.345Z,39.84
2023-05-22T07:34:13.277Z,39.70
2023-05-22T07:35:13.248Z,39.69
2023-05-22T07:36:13.297Z,39.77
2023-05-22T07:37:13.285Z,39.82
2023-05-22T07:38:13.317Z,39.90
2023-05-22T07:39:13.307Z,39.96
2023-05-22T07:40:13.363Z,39.93
2023-05-22T07:41:13.324Z,39.83
2023-05-22T07:42:13.316Z,39.92
2023-05-22T07:43:13.411Z,39.68
2023-05-22T07:44:13.354Z,39.51
2023-05-22T07:45:13.353Z,39.51
2023-05-22T07:46:13.518Z,39.48
2023-05-22T07:47:13.397Z,39.27
2023-05-22T07:48:13.461Z,39.48
2023-05-22T07:49:13.439Z,39.53
2023-05-22T07:50:13.462Z,39.44
2023-05-22T07:51:13.499Z,39.48
2023-05-22T07:52:13.483Z,39.44
2023-05-22T07:53:13.540Z,39.82
2023-05-22T07:54:13.582Z,39.94
2023-05-22T07:55:13.579Z,40.19
2023-05-22T07:56:13.655Z,40.12
2023-05-22T07:57:13.648Z,40.26
2023-05-22T07:58:13.706Z,40.27
2023-05-22T07:59:13.781Z,40.21
2023-05-22T08:00:14.039Z,40.02
2023-05-22T08:01:13.779Z,39.97
2023-05-22T08:02:13.813Z,40.19
2023-05-22T08:03:13.975Z,40.16
2023-05-22T08:04:13.959Z,40.16
2023-05-22T08:05:14.025Z,40.06
2023-05-22T08:06:13.925Z,40.19
2023-05-22T08:07:13.976Z,40.49
2023-05-22T08:08:14.048Z,41.06
2023-05-22T08:09:14.068Z,41.55
2023-05-22T08:10:14.089Z,41.96
2023-05-22T08:11:14.071Z,42.39
2023-05-22T08:12:14.099Z,42.69
2023-05-22T08:13:14.114Z,43.04
2023-05-22T08:14:14.129Z,43.29
2023-05-22T08:15:14.251Z,43.43
2023-05-22T08:16:14.174Z,43.59
2023-05-22T08:17:14.358Z,43.90
2023-05-22T08:18:14.331Z,44.10
2023-05-22T08:19:14.357Z,44.31
2023-05-22T08:20:14.514Z,44.49
2023-05-22T08:21:14.397Z,44.37
2023-05-22T08:22:14.413Z,44.64
2023-05-22T08:23:14.480Z,44.62
2023-05-22T08:24:14.506Z,44.75
2023-05-22T08:25:14.570Z,44.80
2023-05-22T08:26:14.609Z,44.86
2023-05-22T08:27:14.668Z,44.97
2023-05-22T08:28:14.759Z,44.97
2023-05-22T08:29:14.778Z,45.10
2023-05-22T08:30:14.910Z,45.09
2023-05-22T08:31:14.925Z,45.02
2023-05-22T08:32:14.946Z,45.14
2023-05-22T08:33:15.075Z,45.21
2023-05-22T08:34:15.115Z,45.01
2023-05-22T08:35:15.125Z,44.90
2023-05-22T08:36:15.170Z,44.91
2023-05-22T08:37:15.246Z,44.79
2023-05-22T08:38:15.306Z,44.64
2023-05-22T08:39:15.359Z,44.50
2023-05-22T08:40:15.442Z,44.62
2023-05-22T08:41:15.485Z,44.58
2023-05-22T08:42:15.561Z,44.52
2023-05-22T08:43:15.680Z,44.46
2023-05-22T08:44:15.596Z,44.55
2023-05-22T08:45:15.638Z,44.48
2023-05-22T08:46:15.621Z,44.60
2023-05-22T08:47:15.859Z,44.41
2023-05-22T08:48:15.583Z,44.28
2023-05-22T08:49:15.584Z,44.29
2023-05-22T08:50:15.570Z,45.01
2023-05-22T08:51:15.566Z,45.11
2023-05-22T08:52:15.603Z,44.91
2023-05-22T08:53:15.686Z,44.69
2023-05-22T08:54:15.724Z,44.60
2023-05-22T08:55:15.753Z,45.14
2023-05-22T08:56:15.810Z,45.16
2023-05-22T08:57:15.863Z,45.50
2023-05-22T08:58:15.925Z,45.20
2023-05-22T08:59:15.942Z,45.33
2023-05-22T09:00:16.017Z,45.38
2023-05-22T09:01:16.095Z,45.57
2023-05-22T09:02:16.044Z,45.52
2023-05-22T09:03:16.223Z,45.66
2023-05-22T09:04:16.147Z,45.57
2023-05-22T09:05:16.175Z,45.59
2023-05-22T09:06:16.213Z,45.46
2023-05-22T09:07:16.235Z,45.36
2023-05-22T09:08:20.519Z,45.51
2023-05-22T09:09:17.253Z,45.25
2023-05-22T09:10:16.249Z,45.61
2023-05-22T09:11:16.222Z,45.52
2023-05-22T09:12:16.222Z,45.48
2023-05-22T09:13:16.226Z,45.79
2023-05-22T09:14:16.206Z,45.64
2023-05-22T09:15:16.197Z,45.62
2023-05-22T09:16:16.204Z,45.57
2023-05-22T09:17:16.380Z,45.56
2023-05-22T09:18:16.200Z,46.68
2023-05-22T09:19:16.372Z,46.01
2023-05-22T09:20:16.173Z,45.95
2023-05-22T09:21:28.644Z,45.88
2023-05-22T09:22:17.138Z,45.96
2023-05-22T09:23:16.120Z,45.84
2023-05-22T09:24:16.145Z,45.73
2023-05-22T09:25:16.123Z,45.95
2023-05-22T09:26:16.113Z,45.74
2023-05-22T09:27:16.132Z,45.74
2023-05-22T09:28:16.118Z,45.76
2023-05-22T09:29:16.095Z,45.59
2023-05-22T09:30:16.115Z,45.72
2023-05-22T09:31:16.113Z,45.80
2023-05-22T09:32:16.071Z,45.64
2023-05-22T09:33:16.088Z,45.64
2023-05-22T09:34:16.079Z,45.63
2023-05-22T09:35:16.102Z,45.34
2023-05-22T09:36:16.047Z,45.66
2023-05-22T09:37:16.060Z,45.68
2023-05-22T09:38:16.029Z,45.90
2023-05-22T09:39:16.031Z,45.89
2023-05-22T09:40:16.017Z,45.55
2023-05-22T09:41:16.011Z,45.58
2023-05-22T09:42:16.060Z,45.80
2023-05-22T09:43:16.062Z,45.75
2023-05-22T09:44:16.156Z,45.76
2023-05-22T09:45:16.064Z,45.69
2023-05-22T09:46:16.204Z,45.62
2023-05-22T09:47:16.133Z,45.71
2023-05-22T09:48:16.147Z,45.60
2023-05-22T09:49:17.237Z,45.38
2023-05-22T09:50:16.307Z,45.34
2023-05-22T09:51:16.264Z,45.45
2023-05-22T09:52:16.248Z,45.59
2023-05-22T09:53:16.294Z,45.45
2023-05-22T09:54:16.356Z,45.37
2023-05-22T09:55:16.397Z,45.33
2023-05-22T09:56:21.482Z,45.23
2023-05-22T09:57:17.422Z,45.31
2023-05-22T09:58:16.400Z,45.41
2023-05-22T09:59:16.400Z,45.23
2023-05-22T10:00:16.419Z,45.29
2023-05-22T10:01:16.441Z,45.20
2023-05-22T10:02:16.384Z,45.16
2023-05-22T10:03:16.362Z,44.96
2023-05-22T10:04:16.420Z,44.81
2023-05-22T10:05:16.362Z,44.69
2023-05-22T10:06:16.352Z,44.52
2023-05-22T10:07:16.399Z,44.29
2023-05-22T10:08:16.406Z,44.15
2023-05-22T10:09:19.069Z,44.16
2023-05-22T10:10:16.441Z,44.17
2023-05-22T10:11:16.410Z,44.27
2023-05-22T10:12:16.404Z,44.12
2023-05-22T10:13:16.414Z,44.21
2023-05-22T10:14:16.375Z,44.16
2023-05-22T10:15:16.389Z,44.15
2023-05-22T10:16:16.395Z,44.14
2023-05-22T10:17:16.365Z,44.05
2023-05-22T10:18:16.390Z,43.98
2023-05-22T10:19:16.420Z,43.87
2023-05-22T10:20:16.370Z,43.79
2023-05-22T10:21:16.350Z,43.63
2023-05-22T10:22:16.326Z,43.57
2023-05-22T10:23:16.639Z,43.59
2023-05-22T10:24:16.355Z,43.44
2023-05-22T10:25:16.321Z,43.39
2023-05-22T10:26:16.347Z,43.31
2023-05-22T10:27:16.295Z,43.18
2023-05-22T10:28:16.277Z,43.29
2023-05-22T10:29:16.377Z,43.15
2023-05-22T10:30:16.274Z,43.35
2023-05-22T10:31:16.308Z,43.21
2023-05-22T10:32:16.277Z,43.16
2023-05-22T10:33:16.381Z,43.15
2023-05-22T10:34:16.250Z,43.19
2023-05-22T10:35:16.247Z,43.14
2023-05-22T10:36:16.250Z,43.22
2023-05-22T10:37:19.161Z,43.35
2023-05-22T10:38:17.682Z,43.30
2023-05-22T10:39:16.313Z,43.06
2023-05-22T10:40:16.239Z,43.10
2023-05-22T10:41:16.217Z,43.46
2023-05-22T10:42:16.187Z,43.66
2023-05-22T10:43:16.244Z,43.57
2023-05-22T10:44:16.172Z,43.61
2023-05-22T10:45:16.968Z,43.75
2023-05-22T10:46:16.163Z,43.76
2023-05-22T10:47:16.163Z,43.84
2023-05-22T10:48:16.166Z,43.85
2023-05-22T10:49:16.158Z,43.63
2023-05-22T10:50:16.166Z,43.32
2023-05-22T10:51:16.211Z,43.50
2023-05-22T10:52:16.186Z,43.35
2023-05-22T10:53:16.203Z,43.15
2023-05-22T10:54:16.236Z,42.79
2023-05-22T10:55:16.306Z,42.97
2023-05-22T10:56:16.396Z,42.93
2023-05-22T10:57:16.425Z,42.53
2023-05-22T10:58:16.515Z,42.64
2023-05-22T10:59:16.501Z,42.42
2023-05-22T11:00:16.591Z,42.28
2023-05-22T11:01:16.626Z,41.99
2023-05-22T11:02:16.758Z,42.07
2023-05-22T11:03:18.176Z,41.86
2023-05-22T11:04:16.619Z,41.41
2023-05-22T11:05:16.670Z,41.54
2023-05-22T11:06:16.645Z,41.50
2023-05-22T11:07:16.646Z,41.40
2023-05-22T11:08:18.911Z,41.32
2023-05-22T11:09:16.634Z,41.27
2023-05-22T11:10:16.611Z,41.08
2023-05-22T11:11:16.717Z,40.96
2023-05-22T11:12:16.645Z,40.64
2023-05-22T11:13:16.614Z,40.32
2023-05-22T11:14:16.616Z,40.26
2023-05-22T11:15:16.628Z,39.30
2023-05-22T11:16:16.636Z,39.83
2023-05-22T11:17:16.754Z,39.72
2023-05-22T11:18:16.598Z,39.41
2023-05-22T11:20:16.620Z,39.06
2023-05-22T11:21:16.571Z,39.30
2023-05-22T11:22:16.539Z,39.17
2023-05-22T11:23:16.562Z,38.86
2023-05-22T11:24:16.545Z,39.15
2023-05-22T11:25:16.515Z,39.18
2023-05-22T11:26:16.504Z,38.85
2023-05-22T11:27:16.570Z,38.80
2023-05-22T11:28:16.519Z,38.24
2023-05-22T11:29:16.475Z,37.58
2023-05-22T11:30:16.541Z,37.79
2023-05-22T11:31:16.573Z,36.50
2023-05-22T11:32:16.455Z,35.63
2023-05-22T11:33:16.561Z,35.30
2023-05-22T11:34:16.420Z,35.35
2023-05-22T11:35:16.451Z,35.03
2023-05-22T11:36:16.417Z,35.27
2023-05-22T11:37:16.427Z,35.13
2023-05-22T11:38:16.426Z,35.06
2023-05-22T11:39:16.462Z,34.87
2023-05-22T11:40:16.496Z,34.91
2023-05-22T11:41:16.412Z,34.96
2023-05-22T11:42:16.403Z,34.86
2023-05-22T11:43:16.453Z,34.76
2023-05-22T11:44:16.377Z,34.57
2023-05-22T11:45:16.365Z,34.70
2023-05-22T11:46:16.432Z,34.44
2023-05-22T11:47:16.361Z,34.38
2023-05-22T11:48:16.388Z,34.06
2023-05-22T11:49:16.317Z,33.77
2023-05-22T11:50:22.770Z,33.28
2023-05-22T11:51:17.340Z,33.54
2023-05-22T11:52:16.318Z,33.41
2023-05-22T11:53:16.329Z,33.53
2023-05-22T11:54:16.285Z,33.62
2023-05-22T11:55:16.281Z,33.50
2023-05-22T11:56:16.306Z,33.46
2023-05-22T11:57:16.271Z,33.08
2023-05-22T11:58:16.291Z,33.08
2023-05-22T11:59:16.384Z,33.20
2023-05-22T12:00:16.345Z,33.30
2023-05-22T12:01:16.257Z,33.30
2023-05-22T12:02:16.229Z,33.19
2023-05-22T12:03:16.346Z,33.04
2023-05-22T12:04:16.344Z,33.10
2023-05-22T12:05:16.328Z,33.27
2023-05-22T12:06:17.376Z,33.21
2023-05-22T12:07:16.363Z,33.47
2023-05-22T12:08:16.435Z,33.37
2023-05-22T12:09:16.411Z,33.37
2023-05-22T12:10:16.443Z,33.18
2023-05-22T12:11:16.482Z,33.07
2023-05-22T12:12:16.480Z,33.09
2023-05-22T12:13:16.467Z,33.10
2023-05-22T12:14:16.476Z,33.14
2023-05-22T12:15:16.589Z,33.21
2023-05-22T12:16:16.562Z,33.29
2023-05-22T12:17:16.508Z,33.56
2023-05-22T12:18:16.572Z,33.76
2023-05-22T12:19:16.658Z,33.50
2023-05-22T12:20:16.650Z,33.25
2023-05-22T12:21:16.668Z,33.32
2023-05-22T12:22:16.744Z,33.39
2023-05-22T12:23:16.824Z,33.38
2023-05-22T12:24:16.861Z,33.13
2023-05-22T12:25:16.910Z,32.57
2023-05-22T12:26:16.961Z,32.25
2023-05-22T12:27:16.997Z,31.98
2023-05-22T12:28:17.040Z,31.57
2023-05-22T12:29:17.116Z,31.48
2023-05-22T12:30:17.290Z,31.40
2023-05-22T12:31:17.288Z,31.61
2023-05-22T12:32:17.468Z,31.82
2023-05-22T12:33:17.353Z,31.61
2023-05-22T12:34:17.368Z,31.54
2023-05-22T12:35:17.566Z,31.41
2023-05-22T12:36:17.505Z,31.40
2023-05-22T12:37:17.582Z,31.55
2023-05-22T12:38:17.633Z,31.63
2023-05-22T12:39:17.684Z,31.73
2023-05-22T12:40:17.708Z,31.68
2023-05-22T12:41:17.775Z,31.62
2023-05-22T12:42:17.843Z,31.27
2023-05-22T12:43:17.899Z,30.72
2023-05-22T12:44:18.017Z,30.62
2023-05-22T12:45:18.363Z,30.59
2023-05-22T12:46:18.087Z,30.54
2023-05-22T12:47:18.201Z,30.57
2023-05-22T12:48:18.185Z,30.64
2023-05-22T12:49:18.243Z,30.71
2023-05-22T12:50:18.282Z,30.63
2023-05-22T12:51:20.036Z,30.44
2023-05-22T12:52:18.410Z,30.34
2023-05-22T12:53:18.422Z,30.27
2023-05-22T12:54:18.496Z,30.25
2023-05-22T12:55:18.511Z,30.21
2023-05-22T12:56:18.585Z,30.14